sensor_id;sensor_type;location;lat;lon;timestamp;pressure;altitude;pressure_sealevel;temperature;humidity
10958;BME280;5531;42.570;23.676;2023-02-19T00:00:01;92243.72;;;7.96;62.25
10958;BME280;5531;42.570;23.676;2023-02-19T00:02:30;92249.28;;;7.93;62.20
10958;BME280;5531;42.570;23.676;2023-02-19T00:05:03;92247.50;;;7.93;62.61
10958;BME280;5531;42.570;23.676;2023-02-19T00:07:32;92240.66;;;7.92;62.23
10958;BME280;5531;42.570;23.676;2023-02-19T00:10:01;92239.59;;;8.01;61.23
10958;BME280;5531;42.570;23.676;2023-02-19T00:12:30;92237.44;;;8.05;61.57
10958;BME280;5531;42.570;23.676;2023-02-19T00:14:59;92234.31;;;8.10;60.88
10958;BME280;5531;42.570;23.676;2023-02-19T00:17:30;92242.03;;;8.03;61.04
10958;BME280;5531;42.570;23.676;2023-02-19T00:19:59;92231.34;;;8.13;60.84
10958;BME280;5531;42.570;23.676;2023-02-19T00:22:31;92237.84;;;8.17;60.24
10958;BME280;5531;42.570;23.676;2023-02-19T00:25:00;92228.75;;;8.13;60.23
10958;BME280;5531;42.570;23.676;2023-02-19T00:27:29;92228.81;;;8.04;60.99
10958;BME280;5531;42.570;23.676;2023-02-19T00:29:57;92234.66;;;8.06;61.16
10958;BME280;5531;42.570;23.676;2023-02-19T00:32:26;92238.00;;;8.00;60.67
10958;BME280;5531;42.570;23.676;2023-02-19T00:34:55;92227.38;;;8.02;60.99
10958;BME280;5531;42.570;23.676;2023-02-19T00:37:24;92235.50;;;8.07;60.70
10958;BME280;5531;42.570;23.676;2023-02-19T00:39:56;92224.72;;;8.10;60.46
10958;BME280;5531;42.570;23.676;2023-02-19T00:42:25;92207.94;;;8.04;60.46
10958;BME280;5531;42.570;23.676;2023-02-19T00:44:54;92216.22;;;8.08;60.87
10958;BME280;5531;42.570;23.676;2023-02-19T00:47:23;92208.22;;;8.10;60.84
10958;BME280;5531;42.570;23.676;2023-02-19T00:49:52;92219.31;;;8.12;60.18
10958;BME280;5531;42.570;23.676;2023-02-19T00:52:24;92211.84;;;8.08;60.75
10958;BME280;5531;42.570;23.676;2023-02-19T00:54:56;92206.63;;;8.08;61.35
10958;BME280;5531;42.570;23.676;2023-02-19T00:57:25;92212.97;;;8.06;60.41
10958;BME280;5531;42.570;23.676;2023-02-19T00:59:54;92198.78;;;8.08;60.56
10958;BME280;5531;42.570;23.676;2023-02-19T01:02:23;92199.03;;;7.99;61.43
10958;BME280;5531;42.570;23.676;2023-02-19T01:04:52;92185.72;;;7.94;61.74
10958;BME280;5531;42.570;23.676;2023-02-19T01:07:21;92195.41;;;8.00;62.08
10958;BME280;5531;42.570;23.676;2023-02-19T01:09:50;92190.41;;;7.75;61.51
10958;BME280;5531;42.570;23.676;2023-02-19T01:12:21;92197.38;;;7.83;61.30
10958;BME280;5531;42.570;23.676;2023-02-19T01:14:51;92197.66;;;7.88;60.98
10958;BME280;5531;42.570;23.676;2023-02-19T01:17:20;92199.56;;;7.94;60.95
10958;BME280;5531;42.570;23.676;2023-02-19T01:19:49;92194.34;;;7.94;61.10
10958;BME280;5531;42.570;23.676;2023-02-19T01:22:18;92190.03;;;8.01;61.48
10958;BME280;5531;42.570;23.676;2023-02-19T01:24:47;92192.00;;;7.99;60.43
10958;BME280;5531;42.570;23.676;2023-02-19T01:27:16;92176.25;;;7.93;60.78
10958;BME280;5531;42.570;23.676;2023-02-19T01:29:48;92187.75;;;7.83;60.78
10958;BME280;5531;42.570;23.676;2023-02-19T01:32:17;92173.09;;;7.82;61.41
10958;BME280;5531;42.570;23.676;2023-02-19T01:34:45;92171.63;;;7.80;60.80
10958;BME280;5531;42.570;23.676;2023-02-19T01:37:14;92182.25;;;7.78;61.36
10958;BME280;5531;42.570;23.676;2023-02-19T01:39:43;92183.22;;;7.77;60.94
10958;BME280;5531;42.570;23.676;2023-02-19T01:42:14;92192.38;;;7.73;61.22
10958;BME280;5531;42.570;23.676;2023-02-19T01:47:59;92190.28;;;7.92;60.98
10958;BME280;5531;42.570;23.676;2023-02-19T01:50:34;92197.56;;;7.96;60.48
10958;BME280;5531;42.570;23.676;2023-02-19T01:53:06;92203.25;;;8.00;60.23
10958;BME280;5531;42.570;23.676;2023-02-19T01:55:36;92213.69;;;8.00;60.28
10958;BME280;5531;42.570;23.676;2023-02-19T01:58:05;92206.22;;;7.97;60.22
10958;BME280;5531;42.570;23.676;2023-02-19T02:00:36;92221.41;;;7.93;60.26
10958;BME280;5531;42.570;23.676;2023-02-19T02:03:08;92218.69;;;7.86;61.30
10958;BME280;5531;42.570;23.676;2023-02-19T02:05:43;92214.16;;;7.80;61.33
10958;BME280;5531;42.570;23.676;2023-02-19T02:08:14;92220.91;;;7.75;62.03
10958;BME280;5531;42.570;23.676;2023-02-19T02:10:56;92213.13;;;7.66;63.04
10958;BME280;5531;42.570;23.676;2023-02-19T02:13:26;92222.00;;;7.57;62.91
10958;BME280;5531;42.570;23.676;2023-02-19T02:16:03;92217.50;;;7.43;63.69
10958;BME280;5531;42.570;23.676;2023-02-19T02:18:43;92222.59;;;7.36;64.22
10958;BME280;5531;42.570;23.676;2023-02-19T02:24:33;92206.38;;;7.26;64.90
10958;BME280;5531;42.570;23.676;2023-02-19T02:27:16;92205.09;;;7.22;65.23
10958;BME280;5531;42.570;23.676;2023-02-19T02:30:19;92201.69;;;7.21;65.49
10958;BME280;5531;42.570;23.676;2023-02-19T02:32:57;92208.81;;;7.27;65.74
10958;BME280;5531;42.570;23.676;2023-02-19T02:35:31;92216.94;;;7.32;66.07
10958;BME280;5531;42.570;23.676;2023-02-19T02:38:05;92208.59;;;7.37;65.87
10958;BME280;5531;42.570;23.676;2023-02-19T02:40:36;92207.59;;;7.38;65.97
10958;BME280;5531;42.570;23.676;2023-02-19T02:43:08;92205.78;;;7.47;65.34
10958;BME280;5531;42.570;23.676;2023-02-19T02:45:40;92205.72;;;7.55;66.11
10958;BME280;5531;42.570;23.676;2023-02-19T02:48:24;92201.88;;;7.66;66.43
10958;BME280;5531;42.570;23.676;2023-02-19T02:50:59;92208.94;;;7.80;65.69
10958;BME280;5531;42.570;23.676;2023-02-19T02:53:33;92215.09;;;7.87;65.63
10958;BME280;5531;42.570;23.676;2023-02-19T02:56:17;92214.69;;;7.99;65.53
10958;BME280;5531;42.570;23.676;2023-02-19T02:58:48;92223.78;;;8.03;65.71
10958;BME280;5531;42.570;23.676;2023-02-19T03:01:24;92230.97;;;8.01;65.26
10958;BME280;5531;42.570;23.676;2023-02-19T03:04:09;92234.72;;;7.98;65.31
10958;BME280;5531;42.570;23.676;2023-02-19T03:06:41;92232.66;;;7.94;65.32
10958;BME280;5531;42.570;23.676;2023-02-19T03:09:14;92234.00;;;7.89;65.46
10958;BME280;5531;42.570;23.676;2023-02-19T03:11:46;92235.63;;;7.91;65.63
10958;BME280;5531;42.570;23.676;2023-02-19T03:14:33;92231.09;;;7.84;65.81
10958;BME280;5531;42.570;23.676;2023-02-19T03:17:23;92227.88;;;7.82;65.28
10958;BME280;5531;42.570;23.676;2023-02-19T03:20:12;92223.34;;;7.76;66.05
10958;BME280;5531;42.570;23.676;2023-02-19T03:22:44;92232.47;;;7.72;67.04
10958;BME280;5531;42.570;23.676;2023-02-19T03:25:17;92232.81;;;7.69;66.87
10958;BME280;5531;42.570;23.676;2023-02-19T03:28:00;92238.75;;;7.63;66.72
10958;BME280;5531;42.570;23.676;2023-02-19T03:30:34;92232.41;;;7.57;66.76
10958;BME280;5531;42.570;23.676;2023-02-19T03:33:09;92237.75;;;7.64;66.35
10958;BME280;5531;42.570;23.676;2023-02-19T03:35:42;92246.09;;;7.59;67.05
10958;BME280;5531;42.570;23.676;2023-02-19T03:38:15;92242.69;;;7.59;66.65
10958;BME280;5531;42.570;23.676;2023-02-19T03:40:52;92240.81;;;7.44;67.46
10958;BME280;5531;42.570;23.676;2023-02-19T03:43:29;92246.19;;;7.43;67.84
10958;BME280;5531;42.570;23.676;2023-02-19T03:46:06;92244.75;;;7.40;67.85
10958;BME280;5531;42.570;23.676;2023-02-19T03:48:45;92247.25;;;7.33;68.18
10958;BME280;5531;42.570;23.676;2023-02-19T03:51:28;92252.28;;;7.35;68.45
10958;BME280;5531;42.570;23.676;2023-02-19T03:54:10;92262.09;;;7.25;68.75
10958;BME280;5531;42.570;23.676;2023-02-19T03:56:46;92262.25;;;7.23;68.96
10958;BME280;5531;42.570;23.676;2023-02-19T03:59:22;92260.47;;;7.24;69.50
10958;BME280;5531;42.570;23.676;2023-02-19T04:01:57;92257.06;;;7.15;69.68
10958;BME280;5531;42.570;23.676;2023-02-19T04:04:31;92256.31;;;7.06;70.88
10958;BME280;5531;42.570;23.676;2023-02-19T04:07:03;92262.66;;;7.04;71.25
10958;BME280;5531;42.570;23.676;2023-02-19T04:09:35;92261.34;;;7.08;70.96
10958;BME280;5531;42.570;23.676;2023-02-19T04:12:06;92275.50;;;7.05;70.94
10958;BME280;5531;42.570;23.676;2023-02-19T04:14:38;92264.09;;;7.14;70.76
10958;BME280;5531;42.570;23.676;2023-02-19T04:17:14;92265.22;;;7.12;70.92
10958;BME280;5531;42.570;23.676;2023-02-19T04:19:49;92271.91;;;7.14;70.69
10958;BME280;5531;42.570;23.676;2023-02-19T04:22:21;92273.00;;;7.20;70.44
10958;BME280;5531;42.570;23.676;2023-02-19T04:24:52;92266.81;;;7.21;70.37
10958;BME280;5531;42.570;23.676;2023-02-19T04:27:22;92274.66;;;7.21;70.41
10958;BME280;5531;42.570;23.676;2023-02-19T04:29:51;92284.25;;;7.21;70.46
10958;BME280;5531;42.570;23.676;2023-02-19T04:32:20;92281.00;;;7.19;70.67
10958;BME280;5531;42.570;23.676;2023-02-19T04:34:52;92271.91;;;7.14;70.15
10958;BME280;5531;42.570;23.676;2023-02-19T04:37:21;92283.00;;;7.08;70.29
10958;BME280;5531;42.570;23.676;2023-02-19T04:39:50;92282.69;;;7.03;70.50
10958;BME280;5531;42.570;23.676;2023-02-19T04:42:19;92273.59;;;6.91;71.30
10958;BME280;5531;42.570;23.676;2023-02-19T04:44:48;92263.75;;;6.78;71.97
10958;BME280;5531;42.570;23.676;2023-02-19T04:47:16;92266.56;;;6.60;72.63
10958;BME280;5531;42.570;23.676;2023-02-19T04:49:45;92262.34;;;6.51;73.56
10958;BME280;5531;42.570;23.676;2023-02-19T04:52:17;92268.34;;;6.59;73.08
10958;BME280;5531;42.570;23.676;2023-02-19T04:54:46;92272.91;;;6.57;72.45
10958;BME280;5531;42.570;23.676;2023-02-19T04:57:15;92271.09;;;6.58;73.01
10958;BME280;5531;42.570;23.676;2023-02-19T04:59:45;92271.25;;;6.56;72.63
10958;BME280;5531;42.570;23.676;2023-02-19T05:02:14;92281.34;;;6.59;72.67
10958;BME280;5531;42.570;23.676;2023-02-19T05:04:43;92290.31;;;6.65;72.56
10958;BME280;5531;42.570;23.676;2023-02-19T05:07:12;92285.88;;;6.74;72.29
10958;BME280;5531;42.570;23.676;2023-02-19T05:09:44;92288.81;;;6.71;71.89
10958;BME280;5531;42.570;23.676;2023-02-19T05:12:13;92290.91;;;6.75;72.39
10958;BME280;5531;42.570;23.676;2023-02-19T05:14:42;92296.13;;;6.75;72.44
10958;BME280;5531;42.570;23.676;2023-02-19T05:17:11;92295.00;;;6.70;72.77
10958;BME280;5531;42.570;23.676;2023-02-19T05:19:40;92302.44;;;6.81;71.95
10958;BME280;5531;42.570;23.676;2023-02-19T05:22:09;92307.31;;;6.84;71.99
10958;BME280;5531;42.570;23.676;2023-02-19T05:24:38;92318.25;;;6.88;71.38
10958;BME280;5531;42.570;23.676;2023-02-19T05:27:09;92309.41;;;6.97;71.63
10958;BME280;5531;42.570;23.676;2023-02-19T05:29:38;92304.19;;;6.97;71.61
10958;BME280;5531;42.570;23.676;2023-02-19T05:32:07;92313.31;;;7.01;71.59
10958;BME280;5531;42.570;23.676;2023-02-19T05:34:36;92309.72;;;7.02;71.15
10958;BME280;5531;42.570;23.676;2023-02-19T05:37:05;92312.16;;;7.04;70.53
10958;BME280;5531;42.570;23.676;2023-02-19T05:39:34;92312.97;;;7.04;70.60
10958;BME280;5531;42.570;23.676;2023-02-19T05:42:03;92323.53;;;7.11;70.79
10958;BME280;5531;42.570;23.676;2023-02-19T05:44:35;92320.59;;;7.14;70.71
10958;BME280;5531;42.570;23.676;2023-02-19T05:47:04;92325.81;;;7.14;70.58
10958;BME280;5531;42.570;23.676;2023-02-19T05:49:33;92317.16;;;7.13;70.45
10958;BME280;5531;42.570;23.676;2023-02-19T05:52:02;92320.94;;;7.11;70.25
10958;BME280;5531;42.570;23.676;2023-02-19T05:54:31;92323.06;;;7.07;70.25
10958;BME280;5531;42.570;23.676;2023-02-19T05:57:00;92328.28;;;7.07;70.19
10958;BME280;5531;42.570;23.676;2023-02-19T05:59:30;92332.03;;;7.05;69.98
10958;BME280;5531;42.570;23.676;2023-02-19T06:02:01;92330.88;;;7.07;70.44
10958;BME280;5531;42.570;23.676;2023-02-19T06:04:30;92332.63;;;7.15;70.49
10958;BME280;5531;42.570;23.676;2023-02-19T06:06:59;92335.22;;;7.23;69.56
10958;BME280;5531;42.570;23.676;2023-02-19T06:09:28;92332.91;;;7.28;69.55
10958;BME280;5531;42.570;23.676;2023-02-19T06:11:57;92336.97;;;7.31;68.99
10958;BME280;5531;42.570;23.676;2023-02-19T06:14:26;92333.56;;;7.30;69.38
10958;BME280;5531;42.570;23.676;2023-02-19T06:16:55;92340.06;;;7.34;68.76
10958;BME280;5531;42.570;23.676;2023-02-19T06:19:27;92344.25;;;7.44;68.48
10958;BME280;5531;42.570;23.676;2023-02-19T06:21:56;92346.03;;;7.51;68.12
10958;BME280;5531;42.570;23.676;2023-02-19T06:24:25;92359.69;;;7.53;68.02
10958;BME280;5531;42.570;23.676;2023-02-19T06:26:55;92358.19;;;7.59;68.00
10958;BME280;5531;42.570;23.676;2023-02-19T06:29:24;92361.31;;;7.63;67.79
10958;BME280;5531;42.570;23.676;2023-02-19T06:31:53;92374.16;;;7.64;67.15
10958;BME280;5531;42.570;23.676;2023-02-19T06:34:22;92376.56;;;7.66;67.42
10958;BME280;5531;42.570;23.676;2023-02-19T06:36:53;92379.34;;;7.73;68.21
10958;BME280;5531;42.570;23.676;2023-02-19T06:39:22;92370.00;;;7.78;67.95
10958;BME280;5531;42.570;23.676;2023-02-19T06:41:54;92381.38;;;7.85;67.51
10958;BME280;5531;42.570;23.676;2023-02-19T06:44:23;92372.56;;;7.86;66.42
10958;BME280;5531;42.570;23.676;2023-02-19T06:46:54;92393.41;;;7.95;66.36
10958;BME280;5531;42.570;23.676;2023-02-19T06:49:23;92386.88;;;7.99;66.60
10958;BME280;5531;42.570;23.676;2023-02-19T06:51:54;92389.47;;;7.99;66.12
10958;BME280;5531;42.570;23.676;2023-02-19T06:54:24;92393.34;;;8.03;65.95
10958;BME280;5531;42.570;23.676;2023-02-19T06:56:53;92390.25;;;8.07;66.67
10958;BME280;5531;42.570;23.676;2023-02-19T06:59:25;92397.38;;;8.14;65.82
10958;BME280;5531;42.570;23.676;2023-02-19T07:01:54;92390.66;;;8.19;65.49
10958;BME280;5531;42.570;23.676;2023-02-19T07:04:23;92389.97;;;8.25;65.67
10958;BME280;5531;42.570;23.676;2023-02-19T07:06:54;92383.59;;;8.28;64.88
10958;BME280;5531;42.570;23.676;2023-02-19T07:09:24;92386.97;;;8.37;65.20
10958;BME280;5531;42.570;23.676;2023-02-19T07:11:54;92381.88;;;8.43;64.92
10958;BME280;5531;42.570;23.676;2023-02-19T07:14:23;92378.75;;;8.48;64.89
10958;BME280;5531;42.570;23.676;2023-02-19T07:16:52;92390.84;;;8.41;64.56
10958;BME280;5531;42.570;23.676;2023-02-19T07:19:21;92393.97;;;8.44;64.47
10958;BME280;5531;42.570;23.676;2023-02-19T07:21:50;92386.41;;;8.50;64.36
10958;BME280;5531;42.570;23.676;2023-02-19T07:24:21;92383.09;;;8.56;64.44
10958;BME280;5531;42.570;23.676;2023-02-19T07:26:50;92380.50;;;8.56;64.12
10958;BME280;5531;42.570;23.676;2023-02-19T07:29:19;92390.09;;;8.55;63.88
10958;BME280;5531;42.570;23.676;2023-02-19T07:31:48;92394.94;;;8.43;64.53
10958;BME280;5531;42.570;23.676;2023-02-19T07:34:17;92386.16;;;8.59;65.28
10958;BME280;5531;42.570;23.676;2023-02-19T07:36:46;92378.56;;;8.73;64.11
10958;BME280;5531;42.570;23.676;2023-02-19T07:39:15;92376.97;;;8.87;64.58
10958;BME280;5531;42.570;23.676;2023-02-19T07:41:47;92375.09;;;8.95;63.18
10958;BME280;5531;42.570;23.676;2023-02-19T07:44:16;92376.16;;;9.01;62.63
10958;BME280;5531;42.570;23.676;2023-02-19T07:46:45;92378.25;;;9.06;63.29
10958;BME280;5531;42.570;23.676;2023-02-19T07:49:15;92378.44;;;9.19;62.99
10958;BME280;5531;42.570;23.676;2023-02-19T07:51:44;92376.47;;;9.21;63.88
10958;BME280;5531;42.570;23.676;2023-02-19T07:54:13;92381.09;;;9.34;63.29
10958;BME280;5531;42.570;23.676;2023-02-19T07:56:42;92386.06;;;9.44;62.77
10958;BME280;5531;42.570;23.676;2023-02-19T07:59:14;92376.66;;;9.49;63.05
10958;BME280;5531;42.570;23.676;2023-02-19T08:01:44;92388.56;;;9.67;62.16
10958;BME280;5531;42.570;23.676;2023-02-19T08:04:25;92382.31;;;9.68;62.11
10958;BME280;5531;42.570;23.676;2023-02-19T08:06:54;92386.28;;;9.79;63.03
10958;BME280;5531;42.570;23.676;2023-02-19T08:09:24;92385.94;;;9.82;62.51
10958;BME280;5531;42.570;23.676;2023-02-19T08:11:53;92379.25;;;9.94;61.40
10958;BME280;5531;42.570;23.676;2023-02-19T08:14:39;92382.13;;;9.99;61.84
10958;BME280;5531;42.570;23.676;2023-02-19T08:17:09;92385.34;;;10.01;60.77
10958;BME280;5531;42.570;23.676;2023-02-19T08:19:38;92381.00;;;10.08;62.62
10958;BME280;5531;42.570;23.676;2023-02-19T08:22:07;92379.97;;;10.24;61.89
10958;BME280;5531;42.570;23.676;2023-02-19T08:24:36;92386.66;;;10.27;61.46
10958;BME280;5531;42.570;23.676;2023-02-19T08:27:07;92384.75;;;10.36;60.50
10958;BME280;5531;42.570;23.676;2023-02-19T08:29:39;92387.69;;;10.48;60.77
10958;BME280;5531;42.570;23.676;2023-02-19T08:32:08;92391.56;;;10.52;60.33
10958;BME280;5531;42.570;23.676;2023-02-19T08:34:37;92393.44;;;10.58;59.84
10958;BME280;5531;42.570;23.676;2023-02-19T08:37:07;92381.56;;;10.62;60.16
10958;BME280;5531;42.570;23.676;2023-02-19T08:39:36;92386.81;;;10.62;60.56
10958;BME280;5531;42.570;23.676;2023-02-19T08:42:05;92390.38;;;10.54;60.57
10958;BME280;5531;42.570;23.676;2023-02-19T08:44:34;92389.19;;;10.57;60.68
10958;BME280;5531;42.570;23.676;2023-02-19T08:47:06;92381.94;;;10.59;61.14
10958;BME280;5531;42.570;23.676;2023-02-19T08:49:35;92378.81;;;10.70;60.94
10958;BME280;5531;42.570;23.676;2023-02-19T08:52:04;92377.88;;;10.78;60.44
10958;BME280;5531;42.570;23.676;2023-02-19T08:54:45;92365.03;;;10.83;60.72
10958;BME280;5531;42.570;23.676;2023-02-19T08:57:14;92373.56;;;10.92;59.67
10958;BME280;5531;42.570;23.676;2023-02-19T08:59:43;92367.56;;;10.98;60.38
10958;BME280;5531;42.570;23.676;2023-02-19T09:02:15;92363.81;;;11.07;60.16
10958;BME280;5531;42.570;23.676;2023-02-19T09:04:45;92356.59;;;11.16;59.02
10958;BME280;5531;42.570;23.676;2023-02-19T09:07:14;92358.09;;;11.25;60.43
10958;BME280;5531;42.570;23.676;2023-02-19T09:09:43;92355.31;;;11.33;59.88
10958;BME280;5531;42.570;23.676;2023-02-19T09:12:22;92349.28;;;11.40;58.15
10958;BME280;5531;42.570;23.676;2023-02-19T09:15:04;92346.53;;;11.54;57.31
10958;BME280;5531;42.570;23.676;2023-02-19T09:17:35;92348.44;;;11.67;56.16
10958;BME280;5531;42.570;23.676;2023-02-19T09:20:05;92351.88;;;11.74;56.57
10958;BME280;5531;42.570;23.676;2023-02-19T09:22:35;92335.34;;;11.74;56.89
10958;BME280;5531;42.570;23.676;2023-02-19T09:25:04;92339.63;;;11.88;56.58
10958;BME280;5531;42.570;23.676;2023-02-19T09:27:34;92339.72;;;12.08;56.53
10958;BME280;5531;42.570;23.676;2023-02-19T09:30:03;92334.69;;;12.20;55.56
10958;BME280;5531;42.570;23.676;2023-02-19T09:32:37;92331.28;;;12.26;54.43
10958;BME280;5531;42.570;23.676;2023-02-19T09:35:06;92332.09;;;12.27;54.94
10958;BME280;5531;42.570;23.676;2023-02-19T09:37:36;92315.75;;;12.32;55.29
10958;BME280;5531;42.570;23.676;2023-02-19T09:40:05;92321.84;;;12.45;55.01
10958;BME280;5531;42.570;23.676;2023-02-19T09:42:35;92314.34;;;12.49;53.55
10958;BME280;5531;42.570;23.676;2023-02-19T09:45:05;92317.00;;;12.56;54.84
10958;BME280;5531;42.570;23.676;2023-02-19T09:47:34;92319.03;;;12.67;54.11
10958;BME280;5531;42.570;23.676;2023-02-19T09:50:11;92319.03;;;12.60;54.21
10958;BME280;5531;42.570;23.676;2023-02-19T09:52:44;92326.09;;;12.67;54.95
10958;BME280;5531;42.570;23.676;2023-02-19T09:55:17;92325.06;;;12.68;53.58
10958;BME280;5531;42.570;23.676;2023-02-19T09:57:51;92313.56;;;12.55;55.64
10958;BME280;5531;42.570;23.676;2023-02-19T10:00:23;92312.13;;;12.59;54.57
10958;BME280;5531;42.570;23.676;2023-02-19T10:02:54;92315.78;;;12.52;53.72
10958;BME280;5531;42.570;23.676;2023-02-19T10:05:29;92324.47;;;12.52;54.40
10958;BME280;5531;42.570;23.676;2023-02-19T10:07:58;92322.03;;;12.57;55.66
10958;BME280;5531;42.570;23.676;2023-02-19T10:10:36;92314.16;;;12.71;54.33
10958;BME280;5531;42.570;23.676;2023-02-19T10:13:14;92318.81;;;12.75;54.66
10958;BME280;5531;42.570;23.676;2023-02-19T10:15:47;92311.31;;;12.92;53.18
10958;BME280;5531;42.570;23.676;2023-02-19T10:18:19;92295.94;;;13.09;53.56
10958;BME280;5531;42.570;23.676;2023-02-19T10:20:52;92297.13;;;13.27;54.49
10958;BME280;5531;42.570;23.676;2023-02-19T10:23:23;92280.53;;;13.33;55.56
10958;BME280;5531;42.570;23.676;2023-02-19T10:25:55;92268.38;;;13.45;56.38
10958;BME280;5531;42.570;23.676;2023-02-19T10:28:28;92274.38;;;13.59;53.57
10958;BME280;5531;42.570;23.676;2023-02-19T10:31:00;92262.03;;;13.60;52.97
10958;BME280;5531;42.570;23.676;2023-02-19T10:33:30;92257.38;;;13.62;52.23
10958;BME280;5531;42.570;23.676;2023-02-19T10:36:04;92252.72;;;13.57;52.57
10958;BME280;5531;42.570;23.676;2023-02-19T10:38:36;92256.56;;;13.61;51.96
10958;BME280;5531;42.570;23.676;2023-02-19T10:41:12;92250.25;;;13.75;53.09
10958;BME280;5531;42.570;23.676;2023-02-19T10:43:49;92244.53;;;13.85;52.85
10958;BME280;5531;42.570;23.676;2023-02-19T10:46:21;92236.72;;;14.04;52.62
10958;BME280;5531;42.570;23.676;2023-02-19T10:48:53;92230.19;;;14.13;51.89
10958;BME280;5531;42.570;23.676;2023-02-19T10:51:33;92231.81;;;14.07;50.85
10958;BME280;5531;42.570;23.676;2023-02-19T10:54:05;92227.06;;;13.91;51.42
10958;BME280;5531;42.570;23.676;2023-02-19T10:56:35;92220.38;;;13.95;52.24
10958;BME280;5531;42.570;23.676;2023-02-19T10:59:24;92214.44;;;14.00;52.38
10958;BME280;5531;42.570;23.676;2023-02-19T11:01:55;92204.31;;;14.03;52.94
10958;BME280;5531;42.570;23.676;2023-02-19T11:04:26;92205.59;;;14.19;52.64
10958;BME280;5531;42.570;23.676;2023-02-19T11:07:07;92187.13;;;14.26;51.76
10958;BME280;5531;42.570;23.676;2023-02-19T11:09:37;92190.72;;;14.32;53.40
10958;BME280;5531;42.570;23.676;2023-02-19T11:12:07;92190.94;;;14.30;51.88
10958;BME280;5531;42.570;23.676;2023-02-19T11:14:41;92184.09;;;14.22;51.95
10958;BME280;5531;42.570;23.676;2023-02-19T11:17:22;92177.00;;;14.23;52.94
10958;BME280;5531;42.570;23.676;2023-02-19T11:19:53;92174.97;;;14.25;53.90
10958;BME280;5531;42.570;23.676;2023-02-19T11:22:32;92168.22;;;14.29;53.45
10958;BME280;5531;42.570;23.676;2023-02-19T11:25:04;92167.91;;;14.19;50.92
10958;BME280;5531;42.570;23.676;2023-02-19T11:27:34;92174.97;;;14.25;52.08
10958;BME280;5531;42.570;23.676;2023-02-19T11:30:30;92167.06;;;14.25;51.10
10958;BME280;5531;42.570;23.676;2023-02-19T11:33:17;92169.63;;;14.32;51.39
10958;BME280;5531;42.570;23.676;2023-02-19T11:35:48;92158.94;;;14.26;52.28
10958;BME280;5531;42.570;23.676;2023-02-19T11:38:20;92150.88;;;14.21;53.38
10958;BME280;5531;42.570;23.676;2023-02-19T11:40:55;92151.81;;;14.27;52.06
10958;BME280;5531;42.570;23.676;2023-02-19T11:43:42;92160.66;;;14.39;51.39
10958;BME280;5531;42.570;23.676;2023-02-19T11:46:21;92152.03;;;14.51;51.35
10958;BME280;5531;42.570;23.676;2023-02-19T11:49:10;92142.88;;;14.53;52.09
10958;BME280;5531;42.570;23.676;2023-02-19T11:52:00;92146.56;;;14.52;49.62
10958;BME280;5531;42.570;23.676;2023-02-19T11:54:45;92137.97;;;14.57;51.12
10958;BME280;5531;42.570;23.676;2023-02-19T11:57:33;92134.50;;;14.63;51.55
10958;BME280;5531;42.570;23.676;2023-02-19T12:00:24;92130.50;;;14.79;49.74
10958;BME280;5531;42.570;23.676;2023-02-19T12:05:51;92113.94;;;14.90;49.21
10958;BME280;5531;42.570;23.676;2023-02-19T12:08:53;92120.53;;;14.81;48.69
10958;BME280;5531;42.570;23.676;2023-02-19T12:11:40;92112.38;;;14.82;48.55
10958;BME280;5531;42.570;23.676;2023-02-19T12:17:22;92097.22;;;14.96;49.41
10958;BME280;5531;42.570;23.676;2023-02-19T12:20:05;92091.22;;;15.08;49.67
10958;BME280;5531;42.570;23.676;2023-02-19T12:22:42;92097.00;;;15.16;48.18
10958;BME280;5531;42.570;23.676;2023-02-19T12:25:27;92088.41;;;15.21;47.42
10958;BME280;5531;42.570;23.676;2023-02-19T12:31:07;92087.13;;;15.42;47.41
10958;BME280;5531;42.570;23.676;2023-02-19T12:33:52;92080.13;;;15.48;46.65
10958;BME280;5531;42.570;23.676;2023-02-19T12:36:35;92085.06;;;15.44;47.02
10958;BME280;5531;42.570;23.676;2023-02-19T12:39:11;92079.31;;;15.47;48.17
10958;BME280;5531;42.570;23.676;2023-02-19T12:41:49;92070.38;;;15.48;46.09
10958;BME280;5531;42.570;23.676;2023-02-19T12:44:36;92064.72;;;15.45;46.69
10958;BME280;5531;42.570;23.676;2023-02-19T12:47:11;92057.84;;;15.44;46.19
10958;BME280;5531;42.570;23.676;2023-02-19T12:49:49;92045.44;;;15.44;46.36
10958;BME280;5531;42.570;23.676;2023-02-19T12:52:24;92048.22;;;15.49;46.13
10958;BME280;5531;42.570;23.676;2023-02-19T12:54:57;92047.78;;;15.64;46.84
10958;BME280;5531;42.570;23.676;2023-02-19T12:57:31;92034.00;;;15.62;46.61
10958;BME280;5531;42.570;23.676;2023-02-19T13:00:16;92028.94;;;15.79;45.61
10958;BME280;5531;42.570;23.676;2023-02-19T13:02:54;92032.72;;;15.83;45.99
10958;BME280;5531;42.570;23.676;2023-02-19T13:05:39;92018.81;;;15.88;45.62
10958;BME280;5531;42.570;23.676;2023-02-19T13:08:17;92011.13;;;15.98;44.99
10958;BME280;5531;42.570;23.676;2023-02-19T13:10:52;92006.19;;;16.02;45.88
10958;BME280;5531;42.570;23.676;2023-02-19T13:13:25;92000.22;;;16.06;45.92
10958;BME280;5531;42.570;23.676;2023-02-19T13:16:02;91994.00;;;16.12;45.70
10958;BME280;5531;42.570;23.676;2023-02-19T13:18:39;91994.69;;;16.20;44.69
10958;BME280;5531;42.570;23.676;2023-02-19T13:21:10;91998.47;;;16.24;44.11
10958;BME280;5531;42.570;23.676;2023-02-19T13:24:01;91991.94;;;16.26;44.60
10958;BME280;5531;42.570;23.676;2023-02-19T13:26:45;91992.97;;;16.25;44.24
10958;BME280;5531;42.570;23.676;2023-02-19T13:29:26;91984.00;;;16.26;44.67
10958;BME280;5531;42.570;23.676;2023-02-19T13:32:28;91985.50;;;16.22;43.88
10958;BME280;5531;42.570;23.676;2023-02-19T13:35:18;91988.03;;;16.17;44.49
10958;BME280;5531;42.570;23.676;2023-02-19T13:37:50;91977.91;;;16.26;44.03
10958;BME280;5531;42.570;23.676;2023-02-19T13:40:26;91970.31;;;16.29;44.21
10958;BME280;5531;42.570;23.676;2023-02-19T13:43:00;91977.09;;;16.37;44.67
10958;BME280;5531;42.570;23.676;2023-02-19T13:45:32;91971.44;;;16.45;42.67
10958;BME280;5531;42.570;23.676;2023-02-19T13:48:26;91968.19;;;16.55;43.97
10958;BME280;5531;42.570;23.676;2023-02-19T13:53:58;91957.09;;;16.70;42.60
10958;BME280;5531;42.570;23.676;2023-02-19T13:56:38;91949.38;;;16.92;42.68